createdAt,value
2023-03-01T00:06:25.847Z,-2.30
2023-03-01T00:08:54.120Z,-2.10
2023-03-01T00:11:22.646Z,-2.10
2023-03-01T00:13:54.532Z,-2.10
2023-03-01T00:16:25.452Z,-2.10
2023-03-01T00:18:53.824Z,-2.10
2023-03-01T00:21:23.360Z,-2.10
2023-03-01T00:23:52.006Z,-2.10
2023-03-01T00:26:21.797Z,-2.10
2023-03-01T00:28:51.688Z,-2.10
2023-03-01T00:31:21.877Z,-2.10
2023-03-01T00:33:50.209Z,-2.20
2023-03-01T00:36:18.822Z,-2.20
2023-03-01T00:38:48.180Z,-2.30
2023-03-01T00:41:19.195Z,-2.30
2023-03-01T00:43:47.880Z,-2.30
2023-03-01T00:46:19.129Z,-2.20
2023-03-01T00:48:47.697Z,-2.30
2023-03-01T00:51:17.858Z,-2.30
2023-03-01T00:53:47.673Z,-2.30
2023-03-01T00:56:17.046Z,-2.30
2023-03-01T00:58:45.857Z,-2.30
2023-03-01T01:01:19.179Z,-2.50
2023-03-01T01:03:54.186Z,-2.30
2023-03-01T01:06:24.424Z,-2.30
2023-03-01T01:08:54.232Z,-2.40
2023-03-01T01:11:23.323Z,-2.40
2023-03-01T01:13:51.925Z,-2.40
2023-03-01T01:16:21.921Z,-2.50
2023-03-01T01:18:51.979Z,-2.40
2023-03-01T01:21:23.785Z,-2.60
2023-03-01T01:23:52.712Z,-2.50
2023-03-01T01:26:23.027Z,-2.40
2023-03-01T01:28:51.801Z,-2.50
2023-03-01T01:31:20.661Z,-2.40
2023-03-01T01:33:49.140Z,-2.30
2023-03-01T01:36:19.017Z,-2.40
2023-03-01T01:38:47.432Z,-2.60
2023-03-01T01:41:16.507Z,-2.60
2023-03-01T01:43:46.259Z,-2.70
2023-03-01T01:46:24.052Z,-2.70
2023-03-01T01:48:57.309Z,-2.70
2023-03-01T01:51:39.186Z,-2.60
2023-03-01T01:54:12.466Z,-2.60
2023-03-01T01:56:44.112Z,-2.60
2023-03-01T01:59:13.285Z,-2.60
2023-03-01T02:01:41.550Z,-2.60
2023-03-01T02:04:09.855Z,-2.70
2023-03-01T02:06:46.321Z,-2.80
2023-03-01T02:09:17.889Z,-2.60
2023-03-01T02:11:46.673Z,-2.60
2023-03-01T02:14:15.178Z,-2.50
2023-03-01T02:16:43.673Z,-2.40
2023-03-01T02:19:19.686Z,-2.20
2023-03-01T02:21:56.952Z,-2.20
2023-03-01T02:24:36.426Z,-2.00
2023-03-01T02:27:05.978Z,-1.90
2023-03-01T02:29:35.560Z,-1.80
2023-03-01T02:32:05.866Z,-1.70
2023-03-01T02:34:35.200Z,-1.70
2023-03-01T02:37:07.293Z,-1.50
2023-03-01T02:39:42.955Z,-1.50
2023-03-01T02:42:14.527Z,-1.50
2023-03-01T02:44:44.235Z,-1.40
2023-03-01T02:47:12.411Z,-1.20
2023-03-01T02:49:40.584Z,-1.20
2023-03-01T02:52:33.010Z,-1.20
2023-03-01T02:55:04.295Z,-1.10
2023-03-01T02:57:35.108Z,-1.00
2023-03-01T03:00:09.235Z,-1.00
2023-03-01T03:02:38.229Z,-1.00
2023-03-01T03:05:09.832Z,-0.80
2023-03-01T03:07:40.053Z,-0.70
2023-03-01T03:10:12.303Z,-0.70
2023-03-01T03:12:41.050Z,-0.60
2023-03-01T03:15:13.778Z,-0.60
2023-03-01T03:17:45.358Z,-0.50
2023-03-01T03:20:20.061Z,-0.50
2023-03-01T03:22:49.502Z,-0.20
2023-03-01T03:25:18.608Z,-0.10
2023-03-01T03:27:48.942Z,-0.30
2023-03-01T03:30:22.639Z,-0.20
2023-03-01T03:32:54.221Z,-0.20
2023-03-01T03:35:25.364Z,-0.10
2023-03-01T03:38:03.646Z,-0.20
2023-03-01T03:40:33.308Z,0.30
2023-03-01T03:43:01.512Z,-0.20
2023-03-01T03:45:34.323Z,-0.20
2023-03-01T03:48:03.302Z,-0.40
2023-03-01T03:50:31.591Z,-0.20
2023-03-01T03:53:02.906Z,-0.30
2023-03-01T03:55:31.883Z,-0.10
2023-03-01T03:58:03.211Z,0.00
2023-03-01T04:00:32.882Z,-0.20
2023-03-01T04:03:01.768Z,-0.20
2023-03-01T04:05:30.635Z,-0.10
2023-03-01T04:08:08.114Z,-0.10
2023-03-01T04:10:38.558Z,-0.20
2023-03-01T04:13:07.861Z,-0.20
2023-03-01T04:15:37.556Z,-0.10
2023-03-01T04:18:06.466Z,-0.10
2023-03-01T04:20:37.265Z,-0.10
2023-03-01T04:23:16.596Z,0.00
2023-03-01T04:25:50.429Z,-0.10
2023-03-01T04:28:18.766Z,0.00
2023-03-01T04:30:48.368Z,0.10
2023-03-01T04:33:16.548Z,0.20
2023-03-01T04:35:44.802Z,0.30
2023-03-01T04:38:13.109Z,0.30
2023-03-01T04:40:43.461Z,0.30
2023-03-01T04:43:12.696Z,0.30
2023-03-01T04:45:40.913Z,0.30
2023-03-01T04:48:10.485Z,0.50
2023-03-01T04:50:38.779Z,0.30
2023-03-01T04:53:07.170Z,0.30
2023-03-01T04:55:36.256Z,0.30
2023-03-01T04:58:04.408Z,0.20
2023-03-01T05:00:32.597Z,0.10
2023-03-01T05:03:02.580Z,0.40
2023-03-01T05:05:34.146Z,0.20
2023-03-01T05:08:05.209Z,0.20
2023-03-01T05:10:36.269Z,0.20
2023-03-01T05:13:05.657Z,0.20
2023-03-01T05:15:34.421Z,0.30
2023-03-01T05:18:02.813Z,0.40
2023-03-01T05:20:32.596Z,0.40
2023-03-01T05:23:06.337Z,0.50
2023-03-01T05:25:35.887Z,0.40
2023-03-01T05:28:05.497Z,0.50
2023-03-01T05:30:34.816Z,0.40
2023-03-01T05:33:03.658Z,0.40
2023-03-01T05:35:35.414Z,0.40
2023-03-01T05:38:03.644Z,0.30
2023-03-01T05:40:31.831Z,0.40
2023-03-01T05:43:00.068Z,0.40
2023-03-01T05:45:29.430Z,0.40
2023-03-01T05:47:57.607Z,0.50
2023-03-01T05:50:27.938Z,0.60
2023-03-01T05:53:04.176Z,0.70
2023-03-01T05:55:32.790Z,0.60
2023-03-01T05:58:02.113Z,0.60
2023-03-01T06:00:31.311Z,0.70
2023-03-01T06:03:00.113Z,0.70
2023-03-01T06:05:29.016Z,0.90
2023-03-01T06:08:00.316Z,0.80
2023-03-01T06:10:30.052Z,0.80
2023-03-01T06:12:58.856Z,0.80
2023-03-01T06:15:27.808Z,0.80
2023-03-01T06:17:59.960Z,0.80
2023-03-01T06:20:30.409Z,0.80
2023-03-01T06:22:58.994Z,0.90
2023-03-01T06:25:29.732Z,0.80
2023-03-01T06:27:58.123Z,0.80
2023-03-01T06:30:28.087Z,0.90
2023-03-01T06:33:01.929Z,1.00
2023-03-01T06:35:31.798Z,1.00
2023-03-01T06:38:01.280Z,1.10
2023-03-01T06:40:32.134Z,1.00
2023-03-01T06:43:00.845Z,1.10
2023-03-01T06:45:29.157Z,1.00
2023-03-01T06:48:05.526Z,1.10
2023-03-01T06:50:34.160Z,1.00
2023-03-01T06:53:02.859Z,1.00
2023-03-01T06:55:33.116Z,0.90
2023-03-01T06:58:02.849Z,0.90
2023-03-01T07:00:31.382Z,0.90
2023-03-01T07:03:01.434Z,1.00
2023-03-01T07:05:29.744Z,1.00
2023-03-01T07:07:57.962Z,1.00
2023-03-01T07:10:26.349Z,1.00
2023-03-01T07:12:58.344Z,1.00
2023-03-01T07:15:27.304Z,1.00
2023-03-01T07:17:55.540Z,1.00
2023-03-01T07:20:26.182Z,0.90
2023-03-01T07:22:55.103Z,0.90
2023-03-01T07:25:23.485Z,0.90
2023-03-01T07:27:53.338Z,1.10
2023-03-01T07:30:26.906Z,1.00
2023-03-01T07:32:56.025Z,1.10
2023-03-01T07:35:24.563Z,1.00
2023-03-01T07:37:52.741Z,1.00
2023-03-01T07:40:21.385Z,1.00
2023-03-01T07:42:49.615Z,1.00
2023-03-01T07:45:17.962Z,1.00
2023-03-01T07:47:47.574Z,1.10
2023-03-01T07:50:16.471Z,1.10
2023-03-01T07:52:46.779Z,1.10
2023-03-01T07:55:15.111Z,1.20
2023-03-01T07:57:43.318Z,1.10
2023-03-01T08:00:13.902Z,1.20
2023-03-01T08:02:43.060Z,1.20
2023-03-01T08:05:13.189Z,1.20
2023-03-01T08:07:41.423Z,1.20
2023-03-01T08:10:10.658Z,1.20
2023-03-01T08:12:39.071Z,1.90
2023-03-01T08:15:08.312Z,1.30
2023-03-01T08:17:36.801Z,1.30
2023-03-01T08:20:07.428Z,1.30
2023-03-01T08:22:37.192Z,1.30
2023-03-01T08:25:05.979Z,1.40
2023-03-01T08:27:34.139Z,1.40
2023-03-01T08:30:02.273Z,1.50
2023-03-01T08:32:30.656Z,1.60
2023-03-01T08:34:59.063Z,1.80
2023-03-01T08:37:27.753Z,1.90
2023-03-01T08:39:57.331Z,1.70
2023-03-01T08:42:25.540Z,1.80
2023-03-01T08:44:53.737Z,1.90
2023-03-01T08:47:21.987Z,1.90
2023-03-01T08:49:52.112Z,1.90
2023-03-01T08:52:20.284Z,2.10
2023-03-01T08:54:50.295Z,2.70
2023-03-01T08:57:20.042Z,2.00
2023-03-01T08:59:48.289Z,2.00
2023-03-01T09:02:18.774Z,2.10
2023-03-01T09:04:47.328Z,2.20
2023-03-01T09:07:15.607Z,2.00
2023-03-01T09:09:43.860Z,2.10
2023-03-01T09:12:12.259Z,2.40
2023-03-01T09:14:42.340Z,2.10
2023-03-01T09:17:10.734Z,2.30
2023-03-01T09:19:39.174Z,2.40
2023-03-01T09:22:07.512Z,2.40
2023-03-01T09:24:35.695Z,2.30
2023-03-01T09:27:03.991Z,2.50
2023-03-01T09:29:32.187Z,2.60
2023-03-01T09:32:01.846Z,2.60
2023-03-01T09:34:30.296Z,2.70
2023-03-01T09:37:03.374Z,2.80
2023-03-01T09:39:33.018Z,2.80
2023-03-01T09:42:03.843Z,2.90
2023-03-01T09:44:38.897Z,2.90
2023-03-01T09:47:19.870Z,3.00
2023-03-01T09:49:53.724Z,3.10
2023-03-01T09:52:30.765Z,3.20
2023-03-01T09:55:00.828Z,3.30
2023-03-01T09:57:38.805Z,3.30
2023-03-01T10:00:22.429Z,3.20
2023-03-01T10:03:00.494Z,3.30
2023-03-01T10:05:39.151Z,3.30
2023-03-01T10:08:37.177Z,3.40
2023-03-01T10:11:07.536Z,3.50
2023-03-01T10:13:47.878Z,3.60
2023-03-01T10:16:19.573Z,3.80
2023-03-01T10:18:55.925Z,3.70
2023-03-01T10:21:24.411Z,3.80
2023-03-01T10:23:54.962Z,3.90
2023-03-01T10:26:45.844Z,3.80
2023-03-01T10:29:15.156Z,3.90
2023-03-01T10:31:46.623Z,3.90
2023-03-01T10:34:19.785Z,3.90
2023-03-01T10:36:52.083Z,3.90
2023-03-01T10:39:22.587Z,3.90
2023-03-01T10:42:02.278Z,3.90
2023-03-01T10:44:46.014Z,3.80
2023-03-01T10:47:21.444Z,4.10
2023-03-01T10:49:59.990Z,4.00
2023-03-01T10:52:32.480Z,4.00
2023-03-01T10:55:02.118Z,4.10
2023-03-01T10:57:42.787Z,4.30
2023-03-01T11:00:23.571Z,4.40
2023-03-01T11:03:03.656Z,4.40
2023-03-01T11:05:34.719Z,4.40
2023-03-01T11:08:05.259Z,4.90
2023-03-01T11:10:35.754Z,4.50
2023-03-01T11:13:16.493Z,4.50
2023-03-01T11:15:45.597Z,4.50
2023-03-01T11:18:30.979Z,4.60
2023-03-01T11:21:09.729Z,4.60
2023-03-01T11:23:41.404Z,4.80
2023-03-01T11:26:12.975Z,4.80
2023-03-01T11:28:44.381Z,4.80
2023-03-01T11:31:13.956Z,5.00
2023-03-01T11:36:24.545Z,5.00
2023-03-01T11:38:52.909Z,5.00
2023-03-01T11:41:26.124Z,5.00
2023-03-01T11:43:59.124Z,5.00
2023-03-01T11:46:52.692Z,5.20
2023-03-01T11:49:47.821Z,5.20
2023-03-01T11:52:27.301Z,5.40
2023-03-01T11:55:07.542Z,5.40
2023-03-01T11:57:51.682Z,5.40
2023-03-01T12:00:39.758Z,5.80
2023-03-01T14:14:47.436Z,10.50
2023-03-01T14:17:35.969Z,10.50
2023-03-01T14:20:11.368Z,10.80
2023-03-01T14:22:42.588Z,11.30
2023-03-01T14:25:22.896Z,11.40
2023-03-01T14:27:59.348Z,11.70
2023-03-01T14:30:32.346Z,11.90
2023-03-01T14:33:03.534Z,12.80
2023-03-01T14:35:33.705Z,11.80
2023-03-01T14:38:02.060Z,11.60
2023-03-01T14:40:33.846Z,11.90
2023-03-01T14:43:09.667Z,12.10
2023-03-01T14:45:37.917Z,12.40
2023-03-01T14:48:09.330Z,12.20
2023-03-01T14:50:44.149Z,12.10
2023-03-01T14:53:19.415Z,12.20
2023-03-01T14:55:50.493Z,11.70
2023-03-01T14:58:22.330Z,11.20
2023-03-01T15:00:53.040Z,11.10
2023-03-01T15:03:33.441Z,11.30
2023-03-01T15:06:03.690Z,11.50
2023-03-01T15:08:35.284Z,11.10
2023-03-01T15:11:09.070Z,11.50
2023-03-01T15:13:38.172Z,11.90
2023-03-01T15:16:12.001Z,11.60
2023-03-01T15:18:47.178Z,11.50
2023-03-01T15:21:21.056Z,11.30
2023-03-01T15:23:54.553Z,11.40
2023-03-01T15:26:29.809Z,10.90
2023-03-01T15:29:00.989Z,10.90
2023-03-01T15:31:32.063Z,10.80
2023-03-01T15:34:26.192Z,10.80
2023-03-01T15:36:55.910Z,10.50
2023-03-01T15:39:40.094Z,10.40
2023-03-01T15:42:11.122Z,10.60
2023-03-01T15:44:44.013Z,10.70
2023-03-01T15:47:27.201Z,11.00
2023-03-01T15:49:58.982Z,11.10
2023-03-01T15:52:30.931Z,11.20
2023-03-01T15:55:01.273Z,11.40
2023-03-01T15:57:29.675Z,11.20
2023-03-01T15:59:57.870Z,11.00
2023-03-01T16:02:26.902Z,10.80
2023-03-01T16:04:57.364Z,10.70
2023-03-01T16:07:27.890Z,10.60
2023-03-01T16:12:25.142Z,10.50
2023-03-01T16:14:54.020Z,9.60
2023-03-01T16:54:41.979Z,7.10
2023-03-01T16:57:10.183Z,6.80
2023-03-01T16:59:38.555Z,6.70
2023-03-01T17:02:07.677Z,6.70
2023-03-01T17:04:35.709Z,6.60
2023-03-01T17:07:03.811Z,6.50
2023-03-01T17:09:32.129Z,6.50
2023-03-01T17:12:01.586Z,6.40
2023-03-01T17:14:30.138Z,6.30
2023-03-01T17:16:59.384Z,6.30
2023-03-01T17:19:30.217Z,6.20
2023-03-01T17:21:58.375Z,6.10
2023-03-01T17:24:26.523Z,6.10
2023-03-01T17:26:54.706Z,6.00
2023-03-01T17:29:24.159Z,6.00
2023-03-01T17:31:52.517Z,5.90
2023-03-01T17:34:21.049Z,5.90
2023-03-01T17:36:50.599Z,5.80
2023-03-01T17:39:20.540Z,5.80
2023-03-01T17:41:48.739Z,5.70
2023-03-01T17:44:16.932Z,5.70
2023-03-01T17:46:46.555Z,5.60
2023-03-01T17:49:14.809Z,5.60
2023-03-01T17:51:43.001Z,5.50
2023-03-01T17:54:11.193Z,5.50
2023-03-01T17:56:41.331Z,5.40
2023-03-01T17:59:09.867Z,5.40
2023-03-01T18:01:38.814Z,5.30
2023-03-01T18:04:08.458Z,5.30
2023-03-01T18:06:37.950Z,5.30
2023-03-01T18:09:06.430Z,5.30
2023-03-01T18:11:35.842Z,5.40
2023-03-01T18:14:04.713Z,5.30
2023-03-01T18:16:34.255Z,5.20
2023-03-01T18:19:03.354Z,5.30
2023-03-01T18:21:33.671Z,5.30
2023-03-01T18:24:02.111Z,5.30
2023-03-01T18:26:31.020Z,5.30
2023-03-01T18:29:01.240Z,5.20
2023-03-01T18:31:33.441Z,5.20
2023-03-01T18:34:02.156Z,5.20
2023-03-01T18:36:33.735Z,5.00
2023-03-01T18:39:03.923Z,4.90
2023-03-01T18:41:32.949Z,4.90
2023-03-01T18:44:02.898Z,4.80
2023-03-01T18:46:31.745Z,4.70
2023-03-01T18:49:00.294Z,4.70
2023-03-01T18:51:30.331Z,4.50
2023-03-01T18:54:00.609Z,4.10
2023-03-01T18:56:30.850Z,3.60
2023-03-01T18:59:00.290Z,3.20
2023-03-01T19:01:31.085Z,2.90
2023-03-01T19:03:59.879Z,2.80
2023-03-01T19:06:31.912Z,2.60
2023-03-01T19:09:01.744Z,2.50
2023-03-01T19:11:31.057Z,2.40
2023-03-01T19:14:01.422Z,2.30
2023-03-01T19:16:32.213Z,2.30
2023-03-01T19:19:03.134Z,2.20
2023-03-01T19:21:33.567Z,2.10
2023-03-01T19:24:03.999Z,1.90
2023-03-01T19:26:33.925Z,1.80
2023-03-01T19:29:03.643Z,1.70
2023-03-01T19:31:32.599Z,1.50
2023-03-01T19:34:10.930Z,1.40
2023-03-01T19:36:39.733Z,1.30
2023-03-01T19:39:10.006Z,1.30
2023-03-01T19:41:38.292Z,1.30
2023-03-01T19:44:08.696Z,1.30
2023-03-01T19:46:37.017Z,1.40
2023-03-01T19:49:06.150Z,1.30
2023-03-01T19:51:36.648Z,1.30
2023-03-01T19:54:05.889Z,1.30
2023-03-01T19:56:36.065Z,1.30
2023-03-01T19:59:04.986Z,1.20
2023-03-01T20:01:34.867Z,1.00
2023-03-01T20:04:03.707Z,0.90
2023-03-01T20:06:32.711Z,0.90
2023-03-01T20:09:12.141Z,0.90
2023-03-01T20:11:48.910Z,0.90
2023-03-01T20:14:17.086Z,0.90
2023-03-01T20:16:45.436Z,0.80
2023-03-01T20:19:13.649Z,0.70
2023-03-01T20:21:41.893Z,0.60
2023-03-01T20:24:10.282Z,0.70
2023-03-01T20:26:41.039Z,0.60
2023-03-01T20:29:10.884Z,0.70
2023-03-01T20:31:41.617Z,0.80
2023-03-01T20:34:10.075Z,0.80
2023-03-01T20:36:41.028Z,0.70
2023-03-01T20:39:11.690Z,0.60
2023-03-01T20:41:39.811Z,0.60
2023-03-01T20:44:09.468Z,0.60
2023-03-01T20:46:39.416Z,0.50
2023-03-01T20:49:07.885Z,0.50
2023-03-01T20:51:36.157Z,0.40
2023-03-01T20:54:05.104Z,0.40
2023-03-01T20:56:33.483Z,0.40
2023-03-01T20:59:01.716Z,0.40
2023-03-01T21:01:29.809Z,0.30
2023-03-01T21:03:59.427Z,0.40
2023-03-01T21:06:27.619Z,0.30
2023-03-01T21:08:56.406Z,0.30
2023-03-01T21:11:25.297Z,0.30
2023-03-01T21:13:53.687Z,0.20
2023-03-01T21:16:22.893Z,0.10
2023-03-01T21:18:51.103Z,0.10
2023-03-01T21:21:23.275Z,0.10
2023-03-01T21:23:51.533Z,0.10
2023-03-01T21:26:22.382Z,0.20
2023-03-01T21:28:51.805Z,0.20
2023-03-01T21:31:22.477Z,0.20
2023-03-01T21:33:52.011Z,0.20
2023-03-01T21:36:22.632Z,0.30
2023-03-01T21:38:51.925Z,0.20
2023-03-01T21:41:22.667Z,0.10
2023-03-01T21:43:52.297Z,0.10
2023-03-01T21:46:22.378Z,0.10
2023-03-01T21:48:52.708Z,0.10
2023-03-01T21:51:25.315Z,0.10
2023-03-01T21:53:55.574Z,0.00
2023-03-01T21:56:25.597Z,0.00
2023-03-01T21:58:53.727Z,0.00
2023-03-01T22:01:24.555Z,0.00
2023-03-01T22:03:52.875Z,0.00
2023-03-01T22:06:24.550Z,0.00
2023-03-01T22:08:55.205Z,-0.10
2023-03-01T22:11:26.352Z,-0.10
2023-03-01T22:13:55.583Z,-0.10
2023-03-01T22:16:26.253Z,-0.10
2023-03-01T22:18:54.741Z,0.00
2023-03-01T22:21:24.920Z,-0.10
2023-03-01T22:23:53.944Z,0.00
2023-03-01T22:26:25.445Z,0.00
2023-03-01T22:28:54.700Z,-0.10
2023-03-01T22:31:23.361Z,-0.10
2023-03-01T22:33:51.866Z,-0.20
2023-03-01T22:36:20.007Z,-0.30
2023-03-01T22:38:49.854Z,-0.30
2023-03-01T22:41:17.916Z,-0.40
2023-03-01T22:43:45.968Z,-0.40
2023-03-01T22:46:15.678Z,-0.40
2023-03-01T22:48:43.920Z,-0.40
2023-03-01T22:51:16.412Z,-0.40
2023-03-01T22:53:44.508Z,-0.40
2023-03-01T22:56:17.043Z,-0.40
2023-03-01T22:58:45.393Z,-0.50
2023-03-01T23:01:15.222Z,-0.60
2023-03-01T23:03:43.395Z,-0.50
2023-03-01T23:06:11.919Z,-0.50
2023-03-01T23:08:40.059Z,-0.40
2023-03-01T23:11:12.422Z,-0.40
2023-03-01T23:13:42.428Z,-0.40
2023-03-01T23:16:11.469Z,-0.50
2023-03-01T23:18:39.762Z,-0.50
2023-03-01T23:21:12.213Z,-0.50
2023-03-01T23:23:40.318Z,-0.60
2023-03-01T23:26:08.492Z,-0.60
2023-03-01T23:28:40.795Z,-0.60
2023-03-01T23:31:13.741Z,-0.70
2023-03-01T23:33:44.445Z,-0.60
2023-03-01T23:36:18.775Z,-0.60
2023-03-01T23:38:47.281Z,-0.60
2023-03-01T23:41:17.084Z,-0.60
2023-03-01T23:43:45.871Z,-0.60
2023-03-01T23:46:15.785Z,-0.60
2023-03-01T23:48:45.183Z,-0.60
2023-03-01T23:51:14.460Z,-0.60
2023-03-01T23:53:44.135Z,-0.70
2023-03-01T23:56:14.532Z,-0.60
2023-03-01T23:58:44.341Z,-0.60
